sensor_id;sensor_type;location;lat;lon;timestamp;P1;durP1;ratioP1;P2;durP2;ratioP2
1831;SDS011;1680;48.106;11.708;2023-04-27T00:00:04;5.60;;;3.70;;
1831;SDS011;1680;48.106;11.708;2023-04-27T00:02:35;3.83;;;3.50;;
1831;SDS011;1680;48.106;11.708;2023-04-27T00:05:04;4.40;;;3.40;;
1831;SDS011;1680;48.106;11.708;2023-04-27T00:07:32;3.80;;;3.40;;
1831;SDS011;1680;48.106;11.708;2023-04-27T00:09:59;3.73;;;3.43;;
1831;SDS011;1680;48.106;11.708;2023-04-27T00:12:26;5.23;;;3.67;;
1831;SDS011;1680;48.106;11.708;2023-04-27T00:14:53;3.53;;;3.23;;
1831;SDS011;1680;48.106;11.708;2023-04-27T00:17:20;4.07;;;3.77;;
1831;SDS011;1680;48.106;11.708;2023-04-27T00:19:48;3.67;;;3.30;;
1831;SDS011;1680;48.106;11.708;2023-04-27T00:22:17;7.77;;;4.20;;
1831;SDS011;1680;48.106;11.708;2023-04-27T00:24:45;3.77;;;3.47;;
1831;SDS011;1680;48.106;11.708;2023-04-27T00:27:12;3.70;;;3.40;;
1831;SDS011;1680;48.106;11.708;2023-04-27T00:29:39;5.03;;;4.00;;
1831;SDS011;1680;48.106;11.708;2023-04-27T00:32:07;4.70;;;4.30;;
1831;SDS011;1680;48.106;11.708;2023-04-27T00:34:35;4.20;;;3.80;;
1831;SDS011;1680;48.106;11.708;2023-04-27T00:37:02;3.83;;;3.53;;
1831;SDS011;1680;48.106;11.708;2023-04-27T00:39:32;4.00;;;3.70;;
1831;SDS011;1680;48.106;11.708;2023-04-27T00:42:00;4.23;;;3.83;;
1831;SDS011;1680;48.106;11.708;2023-04-27T00:44:28;3.50;;;3.20;;
1831;SDS011;1680;48.106;11.708;2023-04-27T00:46:57;4.70;;;3.83;;
1831;SDS011;1680;48.106;11.708;2023-04-27T00:49:24;4.97;;;3.93;;
1831;SDS011;1680;48.106;11.708;2023-04-27T00:51:52;3.80;;;3.50;;
1831;SDS011;1680;48.106;11.708;2023-04-27T00:54:19;3.60;;;3.20;;
1831;SDS011;1680;48.106;11.708;2023-04-27T00:56:48;3.67;;;3.37;;
1831;SDS011;1680;48.106;11.708;2023-04-27T00:59:16;3.57;;;3.30;;
1831;SDS011;1680;48.106;11.708;2023-04-27T01:01:43;4.20;;;3.10;;
1831;SDS011;1680;48.106;11.708;2023-04-27T01:04:11;4.33;;;3.70;;
1831;SDS011;1680;48.106;11.708;2023-04-27T01:06:41;3.30;;;3.00;;
1831;SDS011;1680;48.106;11.708;2023-04-27T01:09:08;3.87;;;3.57;;
1831;SDS011;1680;48.106;11.708;2023-04-27T01:11:35;3.80;;;3.50;;
1831;SDS011;1680;48.106;11.708;2023-04-27T01:14:04;3.80;;;3.40;;
1831;SDS011;1680;48.106;11.708;2023-04-27T01:16:32;4.10;;;3.80;;
1831;SDS011;1680;48.106;11.708;2023-04-27T01:19:01;4.00;;;3.70;;
1831;SDS011;1680;48.106;11.708;2023-04-27T01:21:29;3.87;;;3.50;;
1831;SDS011;1680;48.106;11.708;2023-04-27T01:23:57;4.00;;;3.60;;
1831;SDS011;1680;48.106;11.708;2023-04-27T01:26:24;4.13;;;3.83;;
1831;SDS011;1680;48.106;11.708;2023-04-27T01:28:52;3.80;;;3.40;;
1831;SDS011;1680;48.106;11.708;2023-04-27T01:31:19;3.97;;;3.40;;
1831;SDS011;1680;48.106;11.708;2023-04-27T01:33:46;4.10;;;3.70;;
1831;SDS011;1680;48.106;11.708;2023-04-27T01:36:13;5.13;;;3.50;;
1831;SDS011;1680;48.106;11.708;2023-04-27T01:38:40;4.20;;;3.80;;
1831;SDS011;1680;48.106;11.708;2023-04-27T01:41:09;3.47;;;3.27;;
1831;SDS011;1680;48.106;11.708;2023-04-27T01:43:36;3.30;;;3.00;;
1831;SDS011;1680;48.106;11.708;2023-04-27T01:46:04;3.87;;;3.43;;
1831;SDS011;1680;48.106;11.708;2023-04-27T01:48:32;4.87;;;3.70;;
1831;SDS011;1680;48.106;11.708;2023-04-27T01:50:59;3.67;;;3.37;;
1831;SDS011;1680;48.106;11.708;2023-04-27T01:53:26;4.50;;;4.10;;
1831;SDS011;1680;48.106;11.708;2023-04-27T01:55:54;8.00;;;3.50;;
1831;SDS011;1680;48.106;11.708;2023-04-27T01:58:22;4.43;;;3.57;;
1831;SDS011;1680;48.106;11.708;2023-04-27T02:00:49;4.30;;;3.40;;
1831;SDS011;1680;48.106;11.708;2023-04-27T02:03:16;3.83;;;3.53;;
1831;SDS011;1680;48.106;11.708;2023-04-27T02:05:44;4.00;;;3.50;;
1831;SDS011;1680;48.106;11.708;2023-04-27T02:08:12;3.90;;;3.50;;
1831;SDS011;1680;48.106;11.708;2023-04-27T02:10:39;4.10;;;3.70;;
1831;SDS011;1680;48.106;11.708;2023-04-27T02:13:06;4.00;;;3.50;;
1831;SDS011;1680;48.106;11.708;2023-04-27T02:15:35;4.00;;;3.70;;
1831;SDS011;1680;48.106;11.708;2023-04-27T02:18:02;6.40;;;3.53;;
1831;SDS011;1680;48.106;11.708;2023-04-27T02:20:29;5.80;;;3.93;;
1831;SDS011;1680;48.106;11.708;2023-04-27T02:22:57;3.53;;;3.17;;
1831;SDS011;1680;48.106;11.708;2023-04-27T02:25:25;3.50;;;3.20;;
1831;SDS011;1680;48.106;11.708;2023-04-27T02:27:52;4.23;;;3.73;;
1831;SDS011;1680;48.106;11.708;2023-04-27T02:30:19;3.93;;;3.10;;
1831;SDS011;1680;48.106;11.708;2023-04-27T02:32:51;4.87;;;3.80;;
1831;SDS011;1680;48.106;11.708;2023-04-27T02:35:18;4.17;;;3.77;;
1831;SDS011;1680;48.106;11.708;2023-04-27T02:37:45;5.20;;;3.53;;
1831;SDS011;1680;48.106;11.708;2023-04-27T02:40:13;4.27;;;3.13;;
1831;SDS011;1680;48.106;11.708;2023-04-27T02:42:40;5.67;;;3.67;;
1831;SDS011;1680;48.106;11.708;2023-04-27T02:45:07;3.30;;;3.10;;
1831;SDS011;1680;48.106;11.708;2023-04-27T02:47:34;3.47;;;3.13;;
1831;SDS011;1680;48.106;11.708;2023-04-27T02:50:06;4.47;;;3.10;;
1831;SDS011;1680;48.106;11.708;2023-04-27T02:52:34;3.73;;;3.43;;
1831;SDS011;1680;48.106;11.708;2023-04-27T02:55:02;4.03;;;3.70;;
1831;SDS011;1680;48.106;11.708;2023-04-27T02:57:29;3.70;;;3.30;;
1831;SDS011;1680;48.106;11.708;2023-04-27T02:59:56;3.43;;;3.13;;
1831;SDS011;1680;48.106;11.708;2023-04-27T03:02:24;5.37;;;3.37;;
1831;SDS011;1680;48.106;11.708;2023-04-27T03:04:51;3.80;;;3.43;;
1831;SDS011;1680;48.106;11.708;2023-04-27T03:07:21;5.37;;;3.63;;
1831;SDS011;1680;48.106;11.708;2023-04-27T03:09:48;4.20;;;3.80;;
1831;SDS011;1680;48.106;11.708;2023-04-27T03:12:15;4.30;;;3.90;;
1831;SDS011;1680;48.106;11.708;2023-04-27T03:14:43;4.73;;;4.23;;
1831;SDS011;1680;48.106;11.708;2023-04-27T03:17:10;4.33;;;3.93;;
1831;SDS011;1680;48.106;11.708;2023-04-27T03:19:37;4.30;;;3.80;;
1831;SDS011;1680;48.106;11.708;2023-04-27T03:22:05;4.20;;;3.80;;
1831;SDS011;1680;48.106;11.708;2023-04-27T03:24:33;4.40;;;4.00;;
1831;SDS011;1680;48.106;11.708;2023-04-27T03:27:01;4.60;;;4.17;;
1831;SDS011;1680;48.106;11.708;2023-04-27T03:29:28;4.70;;;3.78;;
1831;SDS011;1680;48.106;11.708;2023-04-27T03:31:55;5.00;;;4.20;;
1831;SDS011;1680;48.106;11.708;2023-04-27T03:34:22;4.27;;;3.87;;
1831;SDS011;1680;48.106;11.708;2023-04-27T03:36:50;4.17;;;3.87;;
1831;SDS011;1680;48.106;11.708;2023-04-27T03:39:17;4.17;;;3.77;;
1831;SDS011;1680;48.106;11.708;2023-04-27T03:41:45;4.40;;;4.00;;
1831;SDS011;1680;48.106;11.708;2023-04-27T03:44:13;4.70;;;4.23;;
1831;SDS011;1680;48.106;11.708;2023-04-27T03:46:40;4.33;;;3.93;;
1831;SDS011;1680;48.106;11.708;2023-04-27T03:49:07;4.00;;;3.67;;
1831;SDS011;1680;48.106;11.708;2023-04-27T03:51:34;4.20;;;3.80;;
1831;SDS011;1680;48.106;11.708;2023-04-27T03:54:03;4.03;;;3.63;;
1831;SDS011;1680;48.106;11.708;2023-04-27T03:56:31;4.07;;;3.30;;
1831;SDS011;1680;48.106;11.708;2023-04-27T03:59:00;3.63;;;3.40;;
1831;SDS011;1680;48.106;11.708;2023-04-27T04:01:28;3.83;;;3.40;;
1831;SDS011;1680;48.106;11.708;2023-04-27T04:03:56;3.67;;;3.37;;
1831;SDS011;1680;48.106;11.708;2023-04-27T04:06:23;3.53;;;3.27;;
1831;SDS011;1680;48.106;11.708;2023-04-27T04:08:50;3.70;;;3.40;;
1831;SDS011;1680;48.106;11.708;2023-04-27T04:11:17;3.50;;;3.20;;
1831;SDS011;1680;48.106;11.708;2023-04-27T04:13:44;3.53;;;3.23;;
1831;SDS011;1680;48.106;11.708;2023-04-27T04:16:12;3.57;;;3.27;;
1831;SDS011;1680;48.106;11.708;2023-04-27T04:18:40;3.97;;;3.57;;
1831;SDS011;1680;48.106;11.708;2023-04-27T04:21:07;4.30;;;3.00;;
1831;SDS011;1680;48.106;11.708;2023-04-27T04:23:35;4.53;;;3.97;;
1831;SDS011;1680;48.106;11.708;2023-04-27T04:26:02;3.87;;;3.33;;
1831;SDS011;1680;48.106;11.708;2023-04-27T04:28:29;4.33;;;3.93;;
1831;SDS011;1680;48.106;11.708;2023-04-27T04:30:56;3.87;;;3.53;;
1831;SDS011;1680;48.106;11.708;2023-04-27T04:33:26;3.73;;;3.30;;
1831;SDS011;1680;48.106;11.708;2023-04-27T04:35:53;3.40;;;3.10;;
1831;SDS011;1680;48.106;11.708;2023-04-27T04:38:21;3.67;;;3.37;;
1831;SDS011;1680;48.106;11.708;2023-04-27T04:40:48;3.80;;;3.20;;
1831;SDS011;1680;48.106;11.708;2023-04-27T04:43:16;3.67;;;3.37;;
1831;SDS011;1680;48.106;11.708;2023-04-27T04:45:44;4.03;;;3.43;;
1831;SDS011;1680;48.106;11.708;2023-04-27T04:48:15;3.37;;;3.10;;
1831;SDS011;1680;48.106;11.708;2023-04-27T04:50:45;4.90;;;3.30;;
1831;SDS011;1680;48.106;11.708;2023-04-27T04:53:12;3.50;;;3.20;;
1831;SDS011;1680;48.106;11.708;2023-04-27T04:55:39;4.03;;;3.73;;
1831;SDS011;1680;48.106;11.708;2023-04-27T04:58:06;4.57;;;3.47;;
1831;SDS011;1680;48.106;11.708;2023-04-27T05:00:34;4.17;;;3.87;;
1831;SDS011;1680;48.106;11.708;2023-04-27T05:03:01;3.83;;;3.53;;
1831;SDS011;1680;48.106;11.708;2023-04-27T05:05:28;4.97;;;3.20;;
1831;SDS011;1680;48.106;11.708;2023-04-27T05:07:56;4.37;;;3.97;;
1831;SDS011;1680;48.106;11.708;2023-04-27T05:10:23;3.63;;;3.33;;
1831;SDS011;1680;48.106;11.708;2023-04-27T05:12:51;6.00;;;4.03;;
1831;SDS011;1680;48.106;11.708;2023-04-27T05:15:18;3.53;;;3.23;;
1831;SDS011;1680;48.106;11.708;2023-04-27T05:17:45;3.33;;;3.13;;
1831;SDS011;1680;48.106;11.708;2023-04-27T05:20:12;5.40;;;3.90;;
1831;SDS011;1680;48.106;11.708;2023-04-27T05:22:39;4.83;;;4.30;;
1831;SDS011;1680;48.106;11.708;2023-04-27T05:25:08;5.60;;;3.97;;
1831;SDS011;1680;48.106;11.708;2023-04-27T05:27:35;3.97;;;3.67;;
1831;SDS011;1680;48.106;11.708;2023-04-27T05:30:02;7.37;;;4.13;;
1831;SDS011;1680;48.106;11.708;2023-04-27T05:32:30;4.70;;;4.20;;
1831;SDS011;1680;48.106;11.708;2023-04-27T05:34:57;4.00;;;3.70;;
1831;SDS011;1680;48.106;11.708;2023-04-27T05:37:24;5.00;;;4.03;;
1831;SDS011;1680;48.106;11.708;2023-04-27T05:39:52;5.67;;;5.07;;
1831;SDS011;1680;48.106;11.708;2023-04-27T05:42:20;4.60;;;4.20;;
1831;SDS011;1680;48.106;11.708;2023-04-27T05:44:47;6.67;;;4.17;;
1831;SDS011;1680;48.106;11.708;2023-04-27T05:47:14;4.80;;;4.03;;
1831;SDS011;1680;48.106;11.708;2023-04-27T05:49:41;4.57;;;4.00;;
1831;SDS011;1680;48.106;11.708;2023-04-27T05:52:08;4.07;;;3.77;;
1831;SDS011;1680;48.106;11.708;2023-04-27T05:54:36;5.20;;;4.70;;
1831;SDS011;1680;48.106;11.708;2023-04-27T05:57:03;5.70;;;5.20;;
1831;SDS011;1680;48.106;11.708;2023-04-27T05:59:32;5.50;;;5.00;;
1831;SDS011;1680;48.106;11.708;2023-04-27T06:01:59;5.53;;;5.03;;
1831;SDS011;1680;48.106;11.708;2023-04-27T06:04:26;5.70;;;5.10;;
1831;SDS011;1680;48.106;11.708;2023-04-27T06:06:53;5.57;;;5.07;;
1831;SDS011;1680;48.106;11.708;2023-04-27T06:09:22;5.87;;;4.63;;
1831;SDS011;1680;48.106;11.708;2023-04-27T06:11:49;5.60;;;5.10;;
1831;SDS011;1680;48.106;11.708;2023-04-27T06:14:19;5.67;;;4.83;;
1831;SDS011;1680;48.106;11.708;2023-04-27T06:16:47;5.80;;;5.20;;
1831;SDS011;1680;48.106;11.708;2023-04-27T06:19:14;5.83;;;4.57;;
1831;SDS011;1680;48.106;11.708;2023-04-27T06:21:41;5.60;;;5.10;;
1831;SDS011;1680;48.106;11.708;2023-04-27T06:24:08;7.70;;;6.07;;
1831;SDS011;1680;48.106;11.708;2023-04-27T06:26:38;6.87;;;6.17;;
1831;SDS011;1680;48.106;11.708;2023-04-27T06:29:05;6.30;;;5.70;;
1831;SDS011;1680;48.106;11.708;2023-04-27T06:31:32;7.10;;;6.30;;
1831;SDS011;1680;48.106;11.708;2023-04-27T06:34:01;7.10;;;6.40;;
1831;SDS011;1680;48.106;11.708;2023-04-27T06:36:28;6.13;;;5.63;;
1831;SDS011;1680;48.106;11.708;2023-04-27T06:38:56;7.20;;;6.53;;
1831;SDS011;1680;48.106;11.708;2023-04-27T06:41:24;6.87;;;6.17;;
1831;SDS011;1680;48.106;11.708;2023-04-27T06:43:54;6.23;;;5.70;;
1831;SDS011;1680;48.106;11.708;2023-04-27T06:46:21;6.53;;;5.93;;
1831;SDS011;1680;48.106;11.708;2023-04-27T06:48:48;7.00;;;5.97;;
1831;SDS011;1680;48.106;11.708;2023-04-27T06:51:18;5.77;;;5.27;;
1831;SDS011;1680;48.106;11.708;2023-04-27T06:53:45;8.10;;;5.97;;
1831;SDS011;1680;48.106;11.708;2023-04-27T06:56:12;7.00;;;6.03;;
1831;SDS011;1680;48.106;11.708;2023-04-27T06:58:39;6.50;;;5.00;;
1831;SDS011;1680;48.106;11.708;2023-04-27T07:01:06;6.10;;;5.50;;
1831;SDS011;1680;48.106;11.708;2023-04-27T07:03:34;9.97;;;6.60;;
1831;SDS011;1680;48.106;11.708;2023-04-27T07:06:01;7.97;;;5.57;;
1831;SDS011;1680;48.106;11.708;2023-04-27T07:08:30;10.07;;;5.23;;
1831;SDS011;1680;48.106;11.708;2023-04-27T07:10:57;6.47;;;5.20;;
1831;SDS011;1680;48.106;11.708;2023-04-27T07:13:24;6.37;;;5.23;;
1831;SDS011;1680;48.106;11.708;2023-04-27T07:15:53;5.40;;;5.00;;
1831;SDS011;1680;48.106;11.708;2023-04-27T07:18:23;6.23;;;5.63;;
1831;SDS011;1680;48.106;11.708;2023-04-27T07:20:52;6.43;;;5.73;;
1831;SDS011;1680;48.106;11.708;2023-04-27T07:23:19;6.50;;;5.90;;
1831;SDS011;1680;48.106;11.708;2023-04-27T07:25:48;6.30;;;5.70;;
1831;SDS011;1680;48.106;11.708;2023-04-27T07:28:16;5.87;;;4.93;;
1831;SDS011;1680;48.106;11.708;2023-04-27T07:30:43;6.50;;;4.83;;
1831;SDS011;1680;48.106;11.708;2023-04-27T07:33:11;5.20;;;4.73;;
1831;SDS011;1680;48.106;11.708;2023-04-27T07:35:41;5.80;;;5.30;;
1831;SDS011;1680;48.106;11.708;2023-04-27T07:38:08;5.80;;;5.20;;
1831;SDS011;1680;48.106;11.708;2023-04-27T07:40:35;9.37;;;5.40;;
1831;SDS011;1680;48.106;11.708;2023-04-27T07:43:05;6.23;;;5.73;;
1831;SDS011;1680;48.106;11.708;2023-04-27T07:45:33;6.67;;;5.60;;
1831;SDS011;1680;48.106;11.708;2023-04-27T07:48:03;6.30;;;5.70;;
1831;SDS011;1680;48.106;11.708;2023-04-27T07:50:30;6.30;;;5.70;;
1831;SDS011;1680;48.106;11.708;2023-04-27T07:52:58;7.37;;;6.20;;
1831;SDS011;1680;48.106;11.708;2023-04-27T07:55:25;5.97;;;5.37;;
1831;SDS011;1680;48.106;11.708;2023-04-27T07:57:53;6.17;;;5.57;;
1831;SDS011;1680;48.106;11.708;2023-04-27T08:00:23;6.60;;;5.90;;
1831;SDS011;1680;48.106;11.708;2023-04-27T08:02:51;7.37;;;5.83;;
1831;SDS011;1680;48.106;11.708;2023-04-27T08:05:19;8.13;;;5.80;;
1831;SDS011;1680;48.106;11.708;2023-04-27T08:07:46;6.40;;;5.80;;
1831;SDS011;1680;48.106;11.708;2023-04-27T08:10:14;5.77;;;5.23;;
1831;SDS011;1680;48.106;11.708;2023-04-27T08:12:41;6.50;;;5.70;;
1831;SDS011;1680;48.106;11.708;2023-04-27T08:15:09;6.50;;;5.77;;
1831;SDS011;1680;48.106;11.708;2023-04-27T08:17:38;5.33;;;4.93;;
1831;SDS011;1680;48.106;11.708;2023-04-27T08:20:06;6.93;;;5.83;;
1831;SDS011;1680;48.106;11.708;2023-04-27T08:22:35;7.70;;;6.57;;
1831;SDS011;1680;48.106;11.708;2023-04-27T08:25:03;6.27;;;5.60;;
1831;SDS011;1680;48.106;11.708;2023-04-27T08:27:31;6.43;;;5.40;;
1831;SDS011;1680;48.106;11.708;2023-04-27T08:29:58;8.77;;;6.37;;
1831;SDS011;1680;48.106;11.708;2023-04-27T08:32:26;6.90;;;6.20;;
1831;SDS011;1680;48.106;11.708;2023-04-27T08:34:54;6.43;;;5.73;;
1831;SDS011;1680;48.106;11.708;2023-04-27T08:37:22;7.00;;;6.30;;
1831;SDS011;1680;48.106;11.708;2023-04-27T08:39:49;7.50;;;6.37;;
1831;SDS011;1680;48.106;11.708;2023-04-27T08:42:16;6.00;;;5.50;;
1831;SDS011;1680;48.106;11.708;2023-04-27T08:44:43;7.50;;;6.50;;
1831;SDS011;1680;48.106;11.708;2023-04-27T08:47:10;7.30;;;6.47;;
1831;SDS011;1680;48.106;11.708;2023-04-27T08:49:37;6.73;;;6.03;;
1831;SDS011;1680;48.106;11.708;2023-04-27T08:52:11;7.63;;;5.93;;
1831;SDS011;1680;48.106;11.708;2023-04-27T08:54:39;8.03;;;6.03;;
1831;SDS011;1680;48.106;11.708;2023-04-27T08:57:09;8.03;;;6.33;;
1831;SDS011;1680;48.106;11.708;2023-04-27T08:59:37;7.50;;;6.57;;
1831;SDS011;1680;48.106;11.708;2023-04-27T09:02:05;10.83;;;6.60;;
1831;SDS011;1680;48.106;11.708;2023-04-27T09:04:35;7.67;;;5.53;;
1831;SDS011;1680;48.106;11.708;2023-04-27T09:10:00;6.20;;;5.60;;
1831;SDS011;1680;48.106;11.708;2023-04-27T09:12:28;8.63;;;6.10;;
1831;SDS011;1680;48.106;11.708;2023-04-27T09:14:56;6.07;;;5.47;;
1831;SDS011;1680;48.106;11.708;2023-04-27T09:17:24;8.70;;;6.30;;
1831;SDS011;1680;48.106;11.708;2023-04-27T09:19:51;7.70;;;6.30;;
1831;SDS011;1680;48.106;11.708;2023-04-27T09:22:40;7.03;;;6.43;;
1831;SDS011;1680;48.106;11.708;2023-04-27T09:25:08;6.60;;;5.93;;
1831;SDS011;1680;48.106;11.708;2023-04-27T09:27:37;9.37;;;6.57;;
1831;SDS011;1680;48.106;11.708;2023-04-27T09:30:11;8.90;;;4.70;;
1831;SDS011;1680;48.106;11.708;2023-04-27T09:32:38;8.87;;;6.30;;
1831;SDS011;1680;48.106;11.708;2023-04-27T09:35:06;10.10;;;5.80;;
1831;SDS011;1680;48.106;11.708;2023-04-27T09:37:46;6.10;;;4.80;;
1831;SDS011;1680;48.106;11.708;2023-04-27T09:40:13;34.47;;;7.37;;
1831;SDS011;1680;48.106;11.708;2023-04-27T09:42:41;16.67;;;6.13;;
1831;SDS011;1680;48.106;11.708;2023-04-27T09:45:08;13.17;;;5.70;;
1831;SDS011;1680;48.106;11.708;2023-04-27T09:47:37;13.10;;;5.87;;
1831;SDS011;1680;48.106;11.708;2023-04-27T09:50:06;5.97;;;4.67;;
1831;SDS011;1680;48.106;11.708;2023-04-27T09:52:35;6.63;;;4.40;;
1831;SDS011;1680;48.106;11.708;2023-04-27T09:55:04;7.17;;;4.67;;
1831;SDS011;1680;48.106;11.708;2023-04-27T09:57:36;6.60;;;5.60;;
1831;SDS011;1680;48.106;11.708;2023-04-27T10:00:11;6.40;;;5.80;;
1831;SDS011;1680;48.106;11.708;2023-04-27T10:02:51;5.80;;;5.30;;
1831;SDS011;1680;48.106;11.708;2023-04-27T10:05:40;6.20;;;5.60;;
1831;SDS011;1680;48.106;11.708;2023-04-27T10:08:16;5.23;;;4.73;;
1831;SDS011;1680;48.106;11.708;2023-04-27T10:10:48;7.97;;;5.80;;
1831;SDS011;1680;48.106;11.708;2023-04-27T10:13:19;5.80;;;5.30;;
1831;SDS011;1680;48.106;11.708;2023-04-27T10:15:47;5.77;;;4.97;;
1831;SDS011;1680;48.106;11.708;2023-04-27T10:18:24;4.63;;;4.10;;
1831;SDS011;1680;48.106;11.708;2023-04-27T10:20:52;5.27;;;4.50;;
1831;SDS011;1680;48.106;11.708;2023-04-27T10:23:23;5.50;;;4.40;;
1831;SDS011;1680;48.106;11.708;2023-04-27T10:25:52;4.80;;;4.40;;
1831;SDS011;1680;48.106;11.708;2023-04-27T10:28:21;5.67;;;4.57;;
1831;SDS011;1680;48.106;11.708;2023-04-27T10:30:48;6.50;;;5.10;;
1831;SDS011;1680;48.106;11.708;2023-04-27T10:33:16;8.20;;;4.80;;
1831;SDS011;1680;48.106;11.708;2023-04-27T10:35:52;5.50;;;5.00;;
1831;SDS011;1680;48.106;11.708;2023-04-27T10:38:21;4.63;;;4.23;;
1831;SDS011;1680;48.106;11.708;2023-04-27T10:40:55;6.23;;;4.40;;
1831;SDS011;1680;48.106;11.708;2023-04-27T10:43:25;8.47;;;5.30;;
1831;SDS011;1680;48.106;11.708;2023-04-27T10:46:05;6.27;;;4.40;;
1831;SDS011;1680;48.106;11.708;2023-04-27T10:48:33;5.80;;;5.20;;
1831;SDS011;1680;48.106;11.708;2023-04-27T10:51:00;6.17;;;5.57;;
1831;SDS011;1680;48.106;11.708;2023-04-27T10:53:32;7.70;;;5.53;;
1831;SDS011;1680;48.106;11.708;2023-04-27T10:56:02;5.90;;;5.27;;
1831;SDS011;1680;48.106;11.708;2023-04-27T10:58:30;5.40;;;4.90;;
1831;SDS011;1680;48.106;11.708;2023-04-27T11:00:58;5.07;;;4.50;;
1831;SDS011;1680;48.106;11.708;2023-04-27T11:03:25;6.70;;;5.10;;
1831;SDS011;1680;48.106;11.708;2023-04-27T11:05:58;5.50;;;5.00;;
1831;SDS011;1680;48.106;11.708;2023-04-27T11:08:26;5.50;;;4.90;;
1831;SDS011;1680;48.106;11.708;2023-04-27T11:10:54;6.77;;;5.37;;
1831;SDS011;1680;48.106;11.708;2023-04-27T11:13:23;6.00;;;5.00;;
1831;SDS011;1680;48.106;11.708;2023-04-27T11:15:55;6.73;;;4.80;;
1831;SDS011;1680;48.106;11.708;2023-04-27T11:18:36;6.97;;;5.23;;
1831;SDS011;1680;48.106;11.708;2023-04-27T11:21:07;5.77;;;5.27;;
1831;SDS011;1680;48.106;11.708;2023-04-27T11:23:36;6.33;;;5.57;;
1831;SDS011;1680;48.106;11.708;2023-04-27T11:26:10;5.30;;;4.80;;
1831;SDS011;1680;48.106;11.708;2023-04-27T11:28:38;5.20;;;4.70;;
1831;SDS011;1680;48.106;11.708;2023-04-27T11:31:06;5.23;;;4.60;;
1831;SDS011;1680;48.106;11.708;2023-04-27T11:33:33;5.67;;;5.17;;
1831;SDS011;1680;48.106;11.708;2023-04-27T11:36:02;5.70;;;5.10;;
1831;SDS011;1680;48.106;11.708;2023-04-27T11:38:32;5.67;;;4.60;;
1831;SDS011;1680;48.106;11.708;2023-04-27T11:41:00;6.87;;;4.70;;
1831;SDS011;1680;48.106;11.708;2023-04-27T11:43:30;5.63;;;4.40;;
1831;SDS011;1680;48.106;11.708;2023-04-27T11:46:00;4.60;;;3.50;;
1831;SDS011;1680;48.106;11.708;2023-04-27T11:48:28;4.80;;;4.10;;
1831;SDS011;1680;48.106;11.708;2023-04-27T11:50:56;4.73;;;4.30;;
1831;SDS011;1680;48.106;11.708;2023-04-27T11:53:29;4.07;;;3.67;;
1831;SDS011;1680;48.106;11.708;2023-04-27T11:55:58;5.60;;;4.27;;
1831;SDS011;1680;48.106;11.708;2023-04-27T11:58:26;5.00;;;3.47;;
1831;SDS011;1680;48.106;11.708;2023-04-27T12:00:55;4.53;;;3.67;;
1831;SDS011;1680;48.106;11.708;2023-04-27T12:03:23;6.03;;;3.57;;
1831;SDS011;1680;48.106;11.708;2023-04-27T12:05:50;4.57;;;3.90;;
1831;SDS011;1680;48.106;11.708;2023-04-27T12:08:18;9.17;;;4.30;;
1831;SDS011;1680;48.106;11.708;2023-04-27T12:10:47;6.73;;;4.33;;
1831;SDS011;1680;48.106;11.708;2023-04-27T12:13:15;5.13;;;4.10;;
1831;SDS011;1680;48.106;11.708;2023-04-27T12:15:42;5.43;;;3.90;;
1831;SDS011;1680;48.106;11.708;2023-04-27T12:18:09;3.63;;;3.33;;
1831;SDS011;1680;48.106;11.708;2023-04-27T12:20:37;5.57;;;3.97;;
1831;SDS011;1680;48.106;11.708;2023-04-27T12:23:04;7.47;;;4.17;;
1831;SDS011;1680;48.106;11.708;2023-04-27T12:25:31;11.63;;;4.97;;
1831;SDS011;1680;48.106;11.708;2023-04-27T12:28:03;11.93;;;4.47;;
1831;SDS011;1680;48.106;11.708;2023-04-27T12:30:30;8.30;;;4.20;;
1831;SDS011;1680;48.106;11.708;2023-04-27T12:32:57;7.87;;;3.70;;
1831;SDS011;1680;48.106;11.708;2023-04-27T12:35:25;4.33;;;3.47;;
1831;SDS011;1680;48.106;11.708;2023-04-27T12:37:55;4.00;;;3.63;;
1831;SDS011;1680;48.106;11.708;2023-04-27T12:40:22;4.97;;;3.97;;
1831;SDS011;1680;48.106;11.708;2023-04-27T12:42:50;4.53;;;3.23;;
1831;SDS011;1680;48.106;11.708;2023-04-27T12:45:18;6.73;;;3.63;;
1831;SDS011;1680;48.106;11.708;2023-04-27T12:47:45;6.90;;;5.33;;
1831;SDS011;1680;48.106;11.708;2023-04-27T12:50:13;7.80;;;5.00;;
1831;SDS011;1680;48.106;11.708;2023-04-27T12:52:40;6.80;;;5.67;;
1831;SDS011;1680;48.106;11.708;2023-04-27T12:55:08;5.70;;;4.23;;
1831;SDS011;1680;48.106;11.708;2023-04-27T12:57:35;5.77;;;4.60;;
1831;SDS011;1680;48.106;11.708;2023-04-27T13:00:02;6.67;;;5.33;;
1831;SDS011;1680;48.106;11.708;2023-04-27T13:02:35;5.87;;;4.90;;
1831;SDS011;1680;48.106;11.708;2023-04-27T13:05:03;7.47;;;5.80;;
1831;SDS011;1680;48.106;11.708;2023-04-27T13:07:31;7.80;;;5.90;;
1831;SDS011;1680;48.106;11.708;2023-04-27T13:10:00;6.40;;;5.80;;
1831;SDS011;1680;48.106;11.708;2023-04-27T13:12:27;6.40;;;5.33;;
1831;SDS011;1680;48.106;11.708;2023-04-27T13:14:54;6.40;;;5.40;;
1831;SDS011;1680;48.106;11.708;2023-04-27T13:17:21;6.70;;;5.10;;
1831;SDS011;1680;48.106;11.708;2023-04-27T13:19:50;6.60;;;5.07;;
1831;SDS011;1680;48.106;11.708;2023-04-27T13:22:19;5.60;;;4.50;;
1831;SDS011;1680;48.106;11.708;2023-04-27T13:24:46;7.67;;;5.00;;
1831;SDS011;1680;48.106;11.708;2023-04-27T13:27:14;7.00;;;4.83;;
1831;SDS011;1680;48.106;11.708;2023-04-27T13:29:42;5.03;;;4.63;;
1831;SDS011;1680;48.106;11.708;2023-04-27T13:32:09;4.93;;;4.40;;
1831;SDS011;1680;48.106;11.708;2023-04-27T13:34:36;4.80;;;4.30;;
1831;SDS011;1680;48.106;11.708;2023-04-27T13:37:05;4.80;;;4.30;;
1831;SDS011;1680;48.106;11.708;2023-04-27T13:39:32;5.00;;;4.53;;
1831;SDS011;1680;48.106;11.708;2023-04-27T13:42:01;4.97;;;4.47;;
1831;SDS011;1680;48.106;11.708;2023-04-27T13:44:28;5.20;;;4.70;;
1831;SDS011;1680;48.106;11.708;2023-04-27T13:46:56;7.67;;;5.40;;
1831;SDS011;1680;48.106;11.708;2023-04-27T13:49:23;4.37;;;3.93;;
1831;SDS011;1680;48.106;11.708;2023-04-27T13:51:50;4.73;;;4.33;;
1831;SDS011;1680;48.106;11.708;2023-04-27T13:54:20;5.40;;;4.33;;
1831;SDS011;1680;48.106;11.708;2023-04-27T13:56:47;3.97;;;3.67;;
1831;SDS011;1680;48.106;11.708;2023-04-27T13:59:14;5.50;;;3.87;;
1831;SDS011;1680;48.106;11.708;2023-04-27T14:01:41;3.80;;;3.40;;
1831;SDS011;1680;48.106;11.708;2023-04-27T14:04:08;6.67;;;3.97;;
1831;SDS011;1680;48.106;11.708;2023-04-27T14:06:36;4.47;;;3.70;;
1831;SDS011;1680;48.106;11.708;2023-04-27T14:09:03;4.70;;;3.20;;
1831;SDS011;1680;48.106;11.708;2023-04-27T14:11:32;4.17;;;3.57;;
1831;SDS011;1680;48.106;11.708;2023-04-27T14:13:59;4.07;;;3.40;;
1831;SDS011;1680;48.106;11.708;2023-04-27T14:16:26;5.40;;;3.30;;
1831;SDS011;1680;48.106;11.708;2023-04-27T14:18:53;4.03;;;3.40;;
1831;SDS011;1680;48.106;11.708;2023-04-27T14:21:21;3.40;;;3.10;;
1831;SDS011;1680;48.106;11.708;2023-04-27T14:23:48;3.70;;;3.10;;
1831;SDS011;1680;48.106;11.708;2023-04-27T14:26:15;4.13;;;3.77;;
1831;SDS011;1680;48.106;11.708;2023-04-27T14:28:44;3.10;;;2.90;;
1831;SDS011;1680;48.106;11.708;2023-04-27T14:31:11;2.87;;;2.67;;
1831;SDS011;1680;48.106;11.708;2023-04-27T14:33:38;5.03;;;3.10;;
1831;SDS011;1680;48.106;11.708;2023-04-27T14:36:05;5.30;;;3.20;;
1831;SDS011;1680;48.106;11.708;2023-04-27T14:38:33;5.63;;;3.47;;
1831;SDS011;1680;48.106;11.708;2023-04-27T14:41:00;4.10;;;3.30;;
1831;SDS011;1680;48.106;11.708;2023-04-27T14:43:27;3.80;;;2.80;;
1831;SDS011;1680;48.106;11.708;2023-04-27T14:45:57;6.63;;;3.43;;
1831;SDS011;1680;48.106;11.708;2023-04-27T14:48:25;4.17;;;3.13;;
1831;SDS011;1680;48.106;11.708;2023-04-27T14:50:52;3.17;;;2.90;;
1831;SDS011;1680;48.106;11.708;2023-04-27T14:53:19;3.83;;;2.93;;
1831;SDS011;1680;48.106;11.708;2023-04-27T14:55:49;3.90;;;2.70;;
1831;SDS011;1680;48.106;11.708;2023-04-27T14:58:16;4.73;;;3.53;;
1831;SDS011;1680;48.106;11.708;2023-04-27T15:00:44;3.13;;;2.83;;
1831;SDS011;1680;48.106;11.708;2023-04-27T15:03:12;3.23;;;3.00;;
1831;SDS011;1680;48.106;11.708;2023-04-27T15:05:41;4.30;;;3.47;;
1831;SDS011;1680;48.106;11.708;2023-04-27T15:08:08;5.53;;;3.60;;